sensor_id;sensor_type;location;lat;lon;timestamp;pressure;altitude;pressure_sealevel;temperature;humidity
34328;BME280;20588;48.840;10.064;2023-04-22T00:00:50;95896.19;;;8.35;nan
34328;BME280;20588;48.840;10.064;2023-04-22T00:03:16;95897.75;;;8.36;nan
34328;BME280;20588;48.840;10.064;2023-04-22T00:05:42;95900.75;;;8.33;nan
34328;BME280;20588;48.840;10.064;2023-04-22T00:08:09;95900.19;;;8.31;nan
34328;BME280;20588;48.840;10.064;2023-04-22T00:10:35;95904.94;;;8.28;nan
34328;BME280;20588;48.840;10.064;2023-04-22T00:13:01;95909.06;;;8.29;nan
34328;BME280;20588;48.840;10.064;2023-04-22T00:15:27;95909.44;;;8.32;nan
34328;BME280;20588;48.840;10.064;2023-04-22T00:17:53;95910.22;;;8.33;nan
34328;BME280;20588;48.840;10.064;2023-04-22T00:20:20;95906.06;;;8.32;nan
34328;BME280;20588;48.840;10.064;2023-04-22T00:22:46;95916.97;;;8.27;nan
34328;BME280;20588;48.840;10.064;2023-04-22T00:25:13;95911.28;;;8.25;nan
34328;BME280;20588;48.840;10.064;2023-04-22T00:27:39;95905.16;;;8.26;nan
34328;BME280;20588;48.840;10.064;2023-04-22T00:30:07;95904.41;;;8.19;nan
34328;BME280;20588;48.840;10.064;2023-04-22T00:32:34;95906.59;;;8.16;nan
34328;BME280;20588;48.840;10.064;2023-04-22T00:35:00;95911.88;;;8.21;nan
34328;BME280;20588;48.840;10.064;2023-04-22T00:37:26;95910.72;;;8.17;nan
34328;BME280;20588;48.840;10.064;2023-04-22T00:39:53;95911.72;;;8.16;nan
34328;BME280;20588;48.840;10.064;2023-04-22T00:42:19;95917.47;;;8.11;nan
34328;BME280;20588;48.840;10.064;2023-04-22T00:44:46;95915.16;;;8.03;nan
34328;BME280;20588;48.840;10.064;2023-04-22T00:47:13;95916.91;;;8.03;nan
34328;BME280;20588;48.840;10.064;2023-04-22T00:49:39;95921.69;;;7.99;nan
34328;BME280;20588;48.840;10.064;2023-04-22T00:52:05;95919.34;;;7.98;nan
34328;BME280;20588;48.840;10.064;2023-04-22T00:54:34;95926.22;;;7.97;nan
34328;BME280;20588;48.840;10.064;2023-04-22T00:57:00;95920.69;;;8.00;nan
34328;BME280;20588;48.840;10.064;2023-04-22T00:59:27;95920.91;;;7.99;nan
34328;BME280;20588;48.840;10.064;2023-04-22T01:01:53;95924.88;;;7.95;nan
34328;BME280;20588;48.840;10.064;2023-04-22T01:04:21;95924.91;;;7.88;nan
34328;BME280;20588;48.840;10.064;2023-04-22T01:06:49;95922.56;;;7.87;nan
34328;BME280;20588;48.840;10.064;2023-04-22T01:09:18;95924.75;;;7.83;nan
34328;BME280;20588;48.840;10.064;2023-04-22T01:11:46;95920.63;;;7.82;nan
34328;BME280;20588;48.840;10.064;2023-04-22T01:14:13;95925.75;;;7.82;nan
34328;BME280;20588;48.840;10.064;2023-04-22T01:16:39;95913.34;;;7.79;nan
34328;BME280;20588;48.840;10.064;2023-04-22T01:19:06;95912.16;;;7.82;nan
34328;BME280;20588;48.840;10.064;2023-04-22T01:21:34;95918.66;;;7.84;nan
34328;BME280;20588;48.840;10.064;2023-04-22T01:24:00;95921.34;;;7.89;nan
34328;BME280;20588;48.840;10.064;2023-04-22T01:26:27;95920.59;;;7.89;nan
34328;BME280;20588;48.840;10.064;2023-04-22T01:28:53;95922.41;;;8.06;nan
34328;BME280;20588;48.840;10.064;2023-04-22T01:31:19;95923.25;;;8.31;nan
34328;BME280;20588;48.840;10.064;2023-04-22T01:33:45;95924.59;;;8.34;nan
34328;BME280;20588;48.840;10.064;2023-04-22T01:36:13;95922.75;;;8.41;nan
34328;BME280;20588;48.840;10.064;2023-04-22T01:38:39;95918.59;;;8.46;nan
34328;BME280;20588;48.840;10.064;2023-04-22T01:41:06;95913.38;;;8.53;nan
34328;BME280;20588;48.840;10.064;2023-04-22T01:43:32;95907.34;;;8.65;nan
34328;BME280;20588;48.840;10.064;2023-04-22T01:46:00;95923.09;;;8.87;nan
34328;BME280;20588;48.840;10.064;2023-04-22T01:48:27;95912.84;;;9.35;nan
34328;BME280;20588;48.840;10.064;2023-04-22T01:50:53;95912.44;;;9.67;nan
34328;BME280;20588;48.840;10.064;2023-04-22T01:53:19;95915.91;;;10.14;nan
34328;BME280;20588;48.840;10.064;2023-04-22T01:55:46;95917.41;;;10.44;nan
34328;BME280;20588;48.840;10.064;2023-04-22T01:58:12;95914.28;;;10.54;nan
34328;BME280;20588;48.840;10.064;2023-04-22T02:00:38;95912.47;;;10.66;nan
34328;BME280;20588;48.840;10.064;2023-04-22T02:03:04;95912.94;;;10.63;nan
34328;BME280;20588;48.840;10.064;2023-04-22T02:05:30;95915.81;;;10.66;nan
34328;BME280;20588;48.840;10.064;2023-04-22T02:07:56;95917.84;;;10.76;nan
34328;BME280;20588;48.840;10.064;2023-04-22T02:10:22;95913.59;;;10.70;nan
34328;BME280;20588;48.840;10.064;2023-04-22T02:12:48;95920.06;;;10.84;nan
34328;BME280;20588;48.840;10.064;2023-04-22T02:15:15;95916.47;;;10.85;nan
34328;BME280;20588;48.840;10.064;2023-04-22T02:17:41;95915.88;;;11.18;nan
34328;BME280;20588;48.840;10.064;2023-04-22T02:20:08;95922.13;;;11.22;nan
34328;BME280;20588;48.840;10.064;2023-04-22T02:22:38;95917.38;;;11.30;nan
34328;BME280;20588;48.840;10.064;2023-04-22T02:25:06;95927.03;;;11.51;nan
34328;BME280;20588;48.840;10.064;2023-04-22T02:27:33;95917.13;;;11.71;nan
34328;BME280;20588;48.840;10.064;2023-04-22T02:29:59;95905.22;;;11.82;nan
34328;BME280;20588;48.840;10.064;2023-04-22T02:32:25;95910.66;;;11.69;nan
34328;BME280;20588;48.840;10.064;2023-04-22T02:34:51;95910.66;;;11.57;nan
34328;BME280;20588;48.840;10.064;2023-04-22T02:37:17;95905.97;;;11.54;nan
34328;BME280;20588;48.840;10.064;2023-04-22T02:39:43;95905.50;;;11.57;nan
34328;BME280;20588;48.840;10.064;2023-04-22T02:42:10;95898.41;;;11.48;nan
34328;BME280;20588;48.840;10.064;2023-04-22T02:44:36;95899.63;;;11.45;nan
34328;BME280;20588;48.840;10.064;2023-04-22T02:47:02;95901.22;;;11.46;nan
34328;BME280;20588;48.840;10.064;2023-04-22T02:49:28;95897.66;;;11.36;nan
34328;BME280;20588;48.840;10.064;2023-04-22T02:51:55;95901.22;;;11.46;nan
34328;BME280;20588;48.840;10.064;2023-04-22T02:54:21;95908.25;;;11.51;nan
34328;BME280;20588;48.840;10.064;2023-04-22T02:56:47;95910.81;;;11.51;nan
34328;BME280;20588;48.840;10.064;2023-04-22T02:59:13;95902.88;;;11.52;nan
34328;BME280;20588;48.840;10.064;2023-04-22T03:01:39;95892.09;;;11.55;nan
34328;BME280;20588;48.840;10.064;2023-04-22T03:04:05;95894.63;;;11.67;nan
34328;BME280;20588;48.840;10.064;2023-04-22T03:06:31;95892.75;;;11.62;nan
34328;BME280;20588;48.840;10.064;2023-04-22T03:08:57;95900.13;;;11.70;nan
34328;BME280;20588;48.840;10.064;2023-04-22T03:11:24;95893.72;;;11.73;nan
34328;BME280;20588;48.840;10.064;2023-04-22T03:13:50;95897.56;;;11.87;nan
34328;BME280;20588;48.840;10.064;2023-04-22T03:16:17;95897.56;;;11.87;nan
34328;BME280;20588;48.840;10.064;2023-04-22T03:18:43;95891.38;;;11.71;nan
34328;BME280;20588;48.840;10.064;2023-04-22T03:21:09;95896.47;;;11.55;nan
34328;BME280;20588;48.840;10.064;2023-04-22T03:23:35;95894.88;;;11.37;nan
34328;BME280;20588;48.840;10.064;2023-04-22T03:26:01;95898.72;;;11.23;nan
34328;BME280;20588;48.840;10.064;2023-04-22T03:28:27;95904.44;;;11.14;nan
34328;BME280;20588;48.840;10.064;2023-04-22T03:30:53;95902.69;;;11.03;nan
34328;BME280;20588;48.840;10.064;2023-04-22T03:33:19;95900.91;;;10.91;nan
34328;BME280;20588;48.840;10.064;2023-04-22T03:35:47;95895.53;;;10.81;nan
34328;BME280;20588;48.840;10.064;2023-04-22T03:38:16;95896.13;;;10.72;nan
34328;BME280;20588;48.840;10.064;2023-04-22T03:40:43;95893.91;;;10.64;nan
34328;BME280;20588;48.840;10.064;2023-04-22T03:43:09;95905.09;;;10.58;nan
34328;BME280;20588;48.840;10.064;2023-04-22T03:45:35;95905.19;;;10.51;nan
34328;BME280;20588;48.840;10.064;2023-04-22T03:48:01;95903.88;;;10.49;nan
34328;BME280;20588;48.840;10.064;2023-04-22T03:50:27;95899.06;;;10.41;nan
34328;BME280;20588;48.840;10.064;2023-04-22T03:52:53;95909.47;;;10.34;nan
34328;BME280;20588;48.840;10.064;2023-04-22T03:55:19;95899.50;;;10.26;nan
34328;BME280;20588;48.840;10.064;2023-04-22T03:57:45;95901.50;;;10.24;nan
34328;BME280;20588;48.840;10.064;2023-04-22T04:00:12;95903.94;;;10.19;nan
34328;BME280;20588;48.840;10.064;2023-04-22T04:02:38;95909.53;;;10.16;nan
34328;BME280;20588;48.840;10.064;2023-04-22T04:05:04;95903.50;;;10.11;nan
34328;BME280;20588;48.840;10.064;2023-04-22T04:07:31;95904.53;;;10.10;nan
34328;BME280;20588;48.840;10.064;2023-04-22T04:09:57;95903.16;;;10.07;nan
34328;BME280;20588;48.840;10.064;2023-04-22T04:12:23;95912.50;;;10.02;nan
34328;BME280;20588;48.840;10.064;2023-04-22T04:14:49;95905.47;;;9.97;nan
34328;BME280;20588;48.840;10.064;2023-04-22T04:17:15;95909.72;;;9.92;nan
34328;BME280;20588;48.840;10.064;2023-04-22T04:19:41;95910.16;;;9.89;nan
34328;BME280;20588;48.840;10.064;2023-04-22T04:22:07;95910.03;;;9.84;nan
34328;BME280;20588;48.840;10.064;2023-04-22T04:24:34;95909.88;;;9.79;nan
34328;BME280;20588;48.840;10.064;2023-04-22T04:27:01;95913.69;;;9.76;nan
34328;BME280;20588;48.840;10.064;2023-04-22T04:29:27;95919.84;;;9.75;nan
34328;BME280;20588;48.840;10.064;2023-04-22T04:31:54;95922.06;;;9.72;nan
34328;BME280;20588;48.840;10.064;2023-04-22T04:34:20;95914.78;;;9.69;nan
34328;BME280;20588;48.840;10.064;2023-04-22T04:36:46;95910.66;;;9.68;nan
34328;BME280;20588;48.840;10.064;2023-04-22T04:39:12;95905.09;;;9.71;nan
34328;BME280;20588;48.840;10.064;2023-04-22T04:41:42;95910.22;;;9.71;nan
34328;BME280;20588;48.840;10.064;2023-04-22T04:44:08;95905.09;;;9.71;nan
34328;BME280;20588;48.840;10.064;2023-04-22T04:46:35;95907.22;;;9.74;nan
34328;BME280;20588;48.840;10.064;2023-04-22T04:49:02;95909.34;;;9.77;nan
34328;BME280;20588;48.840;10.064;2023-04-22T04:51:29;95910.03;;;9.84;nan
34328;BME280;20588;48.840;10.064;2023-04-22T04:53:58;95920.97;;;9.91;nan
34328;BME280;20588;48.840;10.064;2023-04-22T04:56:25;95919.56;;;9.95;nan
34328;BME280;20588;48.840;10.064;2023-04-22T04:58:51;95916.53;;;9.98;nan
34328;BME280;20588;48.840;10.064;2023-04-22T05:01:17;95918.66;;;10.01;nan
34328;BME280;20588;48.840;10.064;2023-04-22T05:03:43;95912.28;;;10.03;nan
34328;BME280;20588;48.840;10.064;2023-04-22T05:06:09;95917.38;;;10.10;nan
34328;BME280;20588;48.840;10.064;2023-04-22T05:08:35;95914.47;;;10.18;nan
34328;BME280;20588;48.840;10.064;2023-04-22T05:11:01;95921.28;;;10.24;nan
34328;BME280;20588;48.840;10.064;2023-04-22T05:13:27;95923.00;;;10.30;nan
34328;BME280;20588;48.840;10.064;2023-04-22T05:15:53;95919.84;;;10.39;nan
34328;BME280;20588;48.840;10.064;2023-04-22T05:18:20;95919.97;;;10.44;nan
34328;BME280;20588;48.840;10.064;2023-04-22T05:20:46;95916.28;;;10.52;nan
34328;BME280;20588;48.840;10.064;2023-04-22T05:23:12;95913.91;;;10.62;nan
34328;BME280;20588;48.840;10.064;2023-04-22T05:25:38;95916.16;;;10.70;nan
34328;BME280;20588;48.840;10.064;2023-04-22T05:28:04;95920.28;;;10.82;nan
34328;BME280;20588;48.840;10.064;2023-04-22T05:30:30;95926.75;;;10.96;nan
34328;BME280;20588;48.840;10.064;2023-04-22T05:32:56;95918.78;;;11.10;nan
34328;BME280;20588;48.840;10.064;2023-04-22T05:35:23;95920.88;;;11.24;nan
34328;BME280;20588;48.840;10.064;2023-04-22T05:37:49;95919.38;;;11.40;nan
34328;BME280;20588;48.840;10.064;2023-04-22T05:40:15;95920.50;;;11.60;nan
34328;BME280;20588;48.840;10.064;2023-04-22T05:42:41;95922.75;;;11.68;nan
34328;BME280;20588;48.840;10.064;2023-04-22T05:45:07;95921.44;;;11.66;nan
34328;BME280;20588;48.840;10.064;2023-04-22T05:47:33;95918.88;;;11.82;nan
34328;BME280;20588;48.840;10.064;2023-04-22T05:49:59;95928.03;;;11.90;nan
34328;BME280;20588;48.840;10.064;2023-04-22T05:52:25;95920.78;;;12.03;nan
34328;BME280;20588;48.840;10.064;2023-04-22T05:54:51;95924.94;;;12.21;nan
34328;BME280;20588;48.840;10.064;2023-04-22T05:57:18;95924.69;;;12.22;nan
34328;BME280;20588;48.840;10.064;2023-04-22T05:59:44;95928.44;;;12.31;nan
34328;BME280;20588;48.840;10.064;2023-04-22T06:02:11;95928.91;;;12.45;nan
34328;BME280;20588;48.840;10.064;2023-04-22T06:04:37;95927.75;;;12.52;nan
34328;BME280;20588;48.840;10.064;2023-04-22T06:07:03;95922.72;;;12.62;nan
34328;BME280;20588;48.840;10.064;2023-04-22T06:09:29;95926.38;;;12.66;nan
34328;BME280;20588;48.840;10.064;2023-04-22T06:11:55;95925.91;;;12.69;nan
34328;BME280;20588;48.840;10.064;2023-04-22T06:14:21;95912.69;;;12.83;nan
34328;BME280;20588;48.840;10.064;2023-04-22T06:16:47;95917.72;;;12.94;nan
34328;BME280;20588;48.840;10.064;2023-04-22T06:19:15;95913.59;;;12.93;nan
34328;BME280;20588;48.840;10.064;2023-04-22T06:21:41;95920.22;;;13.06;nan
34328;BME280;20588;48.840;10.064;2023-04-22T06:24:08;95915.03;;;13.22;nan
34328;BME280;20588;48.840;10.064;2023-04-22T06:26:35;95914.88;;;13.34;nan
34328;BME280;20588;48.840;10.064;2023-04-22T06:29:02;95916.13;;;13.53;nan
34328;BME280;20588;48.840;10.064;2023-04-22T06:31:30;95914.81;;;13.77;nan
34328;BME280;20588;48.840;10.064;2023-04-22T06:33:56;95922.38;;;13.83;nan
34328;BME280;20588;48.840;10.064;2023-04-22T06:36:23;95926.22;;;14.07;nan
34328;BME280;20588;48.840;10.064;2023-04-22T06:38:49;95933.22;;;14.07;nan
34328;BME280;20588;48.840;10.064;2023-04-22T06:41:16;95931.75;;;13.89;nan
34328;BME280;20588;48.840;10.064;2023-04-22T06:43:42;95937.56;;;14.01;nan
34328;BME280;20588;48.840;10.064;2023-04-22T06:46:08;95933.72;;;14.04;nan
34328;BME280;20588;48.840;10.064;2023-04-22T06:48:34;95929.06;;;14.06;nan
34328;BME280;20588;48.840;10.064;2023-04-22T06:51:00;95932.50;;;14.16;nan
34328;BME280;20588;48.840;10.064;2023-04-22T06:53:27;95931.16;;;14.35;nan
34328;BME280;20588;48.840;10.064;2023-04-22T06:55:53;95926.47;;;14.69;nan
34328;BME280;20588;48.840;10.064;2023-04-22T06:58:20;95919.63;;;14.95;nan
34328;BME280;20588;48.840;10.064;2023-04-22T07:00:46;95928.22;;;15.10;nan
34328;BME280;20588;48.840;10.064;2023-04-22T07:03:12;95928.88;;;15.37;nan
34328;BME280;20588;48.840;10.064;2023-04-22T07:05:38;95924.09;;;15.81;nan
34328;BME280;20588;48.840;10.064;2023-04-22T07:08:04;95920.53;;;16.47;nan
34328;BME280;20588;48.840;10.064;2023-04-22T07:10:30;95928.28;;;16.87;nan
34328;BME280;20588;48.840;10.064;2023-04-22T07:12:56;95927.66;;;17.20;nan
34328;BME280;20588;48.840;10.064;2023-04-22T07:15:22;95929.09;;;17.56;nan
34328;BME280;20588;48.840;10.064;2023-04-22T07:17:49;95926.06;;;17.88;nan
34328;BME280;20588;48.840;10.064;2023-04-22T07:20:15;95924.59;;;18.11;nan
34328;BME280;20588;48.840;10.064;2023-04-22T07:22:41;95927.66;;;18.85;nan
34328;BME280;20588;48.840;10.064;2023-04-22T07:25:07;95928.66;;;19.59;nan
34328;BME280;20588;48.840;10.064;2023-04-22T07:27:34;95932.69;;;20.08;nan
34328;BME280;20588;48.840;10.064;2023-04-22T07:30:04;95938.75;;;20.40;nan
34328;BME280;20588;48.840;10.064;2023-04-22T07:32:31;95935.09;;;20.87;nan
34328;BME280;20588;48.840;10.064;2023-04-22T07:34:57;95930.00;;;21.22;nan
34328;BME280;20588;48.840;10.064;2023-04-22T07:37:23;95932.16;;;21.48;nan
34328;BME280;20588;48.840;10.064;2023-04-22T07:39:49;95931.25;;;21.66;nan
34328;BME280;20588;48.840;10.064;2023-04-22T07:42:15;95928.78;;;21.83;nan
34328;BME280;20588;48.840;10.064;2023-04-22T07:44:41;95932.75;;;21.31;nan
34328;BME280;20588;48.840;10.064;2023-04-22T07:47:07;95931.75;;;20.68;nan
34328;BME280;20588;48.840;10.064;2023-04-22T07:49:33;95937.75;;;20.55;nan
34328;BME280;20588;48.840;10.064;2023-04-22T07:51:59;95930.59;;;19.91;nan
34328;BME280;20588;48.840;10.064;2023-04-22T07:54:25;95933.41;;;19.95;nan
34328;BME280;20588;48.840;10.064;2023-04-22T07:56:51;95932.00;;;20.02;nan
34328;BME280;20588;48.840;10.064;2023-04-22T07:59:17;95935.59;;;20.25;nan
34328;BME280;20588;48.840;10.064;2023-04-22T08:01:44;95937.97;;;20.72;nan
34328;BME280;20588;48.840;10.064;2023-04-22T08:04:11;95927.75;;;21.02;nan
34328;BME280;20588;48.840;10.064;2023-04-22T08:06:37;95927.94;;;20.92;nan
34328;BME280;20588;48.840;10.064;2023-04-22T08:09:03;95932.91;;;21.34;nan
34328;BME280;20588;48.840;10.064;2023-04-22T08:11:29;95927.63;;;20.80;nan
34328;BME280;20588;48.840;10.064;2023-04-22T08:13:55;95923.44;;;20.34;nan
34328;BME280;20588;48.840;10.064;2023-04-22T08:16:22;95916.00;;;20.41;nan
34328;BME280;20588;48.840;10.064;2023-04-22T08:18:48;95908.38;;;20.90;nan
34328;BME280;20588;48.840;10.064;2023-04-22T08:21:14;95912.50;;;21.72;nan
34328;BME280;20588;48.840;10.064;2023-04-22T08:23:40;95908.88;;;22.39;nan
34328;BME280;20588;48.840;10.064;2023-04-22T08:26:06;95910.81;;;23.08;nan
34328;BME280;20588;48.840;10.064;2023-04-22T08:28:33;95912.63;;;23.39;nan
34328;BME280;20588;48.840;10.064;2023-04-22T08:30:59;95914.94;;;23.32;nan
34328;BME280;20588;48.840;10.064;2023-04-22T08:33:25;95910.19;;;23.03;nan
34328;BME280;20588;48.840;10.064;2023-04-22T08:35:52;95911.84;;;24.20;nan
34328;BME280;20588;48.840;10.064;2023-04-22T08:38:18;95908.88;;;24.04;nan
34328;BME280;20588;48.840;10.064;2023-04-22T08:40:45;95901.00;;;24.13;nan
34328;BME280;20588;48.840;10.064;2023-04-22T08:43:11;95915.22;;;24.29;nan
34328;BME280;20588;48.840;10.064;2023-04-22T08:45:39;95907.63;;;23.76;nan
34328;BME280;20588;48.840;10.064;2023-04-22T08:48:09;95909.50;;;24.35;nan
34328;BME280;20588;48.840;10.064;2023-04-22T08:50:37;95911.28;;;23.50;nan
34328;BME280;20588;48.840;10.064;2023-04-22T08:53:04;95907.97;;;24.09;nan
34328;BME280;20588;48.840;10.064;2023-04-22T08:55:31;95902.84;;;24.29;nan
34328;BME280;20588;48.840;10.064;2023-04-22T08:58:00;95900.19;;;24.55;nan
34328;BME280;20588;48.840;10.064;2023-04-22T09:00:29;95906.69;;;25.12;nan
34328;BME280;20588;48.840;10.064;2023-04-22T09:03:00;95899.88;;;25.69;nan
34328;BME280;20588;48.840;10.064;2023-04-22T09:05:28;95897.66;;;25.51;nan
34328;BME280;20588;48.840;10.064;2023-04-22T09:07:58;95892.31;;;25.30;nan
34328;BME280;20588;48.840;10.064;2023-04-22T09:10:24;95895.81;;;25.51;nan
34328;BME280;20588;48.840;10.064;2023-04-22T09:12:51;95896.75;;;25.47;nan
34328;BME280;20588;48.840;10.064;2023-04-22T09:15:18;95900.56;;;24.91;nan
34328;BME280;20588;48.840;10.064;2023-04-22T09:17:45;95897.13;;;24.99;nan
34328;BME280;20588;48.840;10.064;2023-04-22T09:20:11;95894.09;;;24.80;nan
34328;BME280;20588;48.840;10.064;2023-04-22T09:22:42;95889.38;;;25.32;nan
34328;BME280;20588;48.840;10.064;2023-04-22T09:25:22;95890.47;;;25.31;nan
34328;BME280;20588;48.840;10.064;2023-04-22T09:27:51;95885.19;;;25.39;nan
34328;BME280;20588;48.840;10.064;2023-04-22T09:30:22;95894.13;;;25.47;nan
34328;BME280;20588;48.840;10.064;2023-04-22T09:32:59;95891.97;;;25.03;nan
34328;BME280;20588;48.840;10.064;2023-04-22T09:35:30;95887.91;;;24.76;nan
34328;BME280;20588;48.840;10.064;2023-04-22T09:37:58;95895.00;;;24.84;nan
34328;BME280;20588;48.840;10.064;2023-04-22T09:40:24;95895.63;;;24.90;nan
34328;BME280;20588;48.840;10.064;2023-04-22T09:42:55;95890.91;;;25.04;nan
34328;BME280;20588;48.840;10.064;2023-04-22T09:45:32;95897.63;;;24.93;nan
34328;BME280;20588;48.840;10.064;2023-04-22T09:48:10;95899.69;;;24.61;nan
34328;BME280;20588;48.840;10.064;2023-04-22T09:50:38;95904.06;;;24.49;nan
34328;BME280;20588;48.840;10.064;2023-04-22T09:53:09;95897.59;;;24.04;nan
34328;BME280;20588;48.840;10.064;2023-04-22T09:55:45;95893.56;;;23.98;nan
34328;BME280;20588;48.840;10.064;2023-04-22T09:58:13;95892.03;;;24.14;nan
34328;BME280;20588;48.840;10.064;2023-04-22T10:00:48;95898.34;;;23.79;nan
34328;BME280;20588;48.840;10.064;2023-04-22T10:03:15;95895.84;;;23.17;nan
34328;BME280;20588;48.840;10.064;2023-04-22T10:05:41;95893.94;;;23.32;nan
34328;BME280;20588;48.840;10.064;2023-04-22T10:08:10;95896.75;;;23.13;nan
34328;BME280;20588;48.840;10.064;2023-04-22T10:10:37;95890.25;;;23.50;nan
34328;BME280;20588;48.840;10.064;2023-04-22T10:13:05;95888.00;;;23.82;nan
34328;BME280;20588;48.840;10.064;2023-04-22T10:15:40;95882.53;;;24.47;nan
34328;BME280;20588;48.840;10.064;2023-04-22T10:18:12;95882.56;;;24.38;nan
34328;BME280;20588;48.840;10.064;2023-04-22T10:20:41;95884.72;;;24.36;nan
34328;BME280;20588;48.840;10.064;2023-04-22T10:23:14;95877.47;;;24.25;nan
34328;BME280;20588;48.840;10.064;2023-04-22T10:25:41;95880.50;;;24.52;nan
34328;BME280;20588;48.840;10.064;2023-04-22T10:28:09;95876.13;;;24.82;nan
34328;BME280;20588;48.840;10.064;2023-04-22T10:30:39;95877.09;;;25.44;nan
34328;BME280;20588;48.840;10.064;2023-04-22T10:38:41;95861.50;;;28.30;nan
34328;BME280;20588;48.840;10.064;2023-04-22T10:41:31;95855.97;;;28.35;nan
34328;BME280;20588;48.840;10.064;2023-04-22T10:43:58;95859.88;;;27.85;nan
34328;BME280;20588;48.840;10.064;2023-04-22T10:49:23;95848.88;;;27.20;nan
34328;BME280;20588;48.840;10.064;2023-04-22T10:51:58;95844.25;;;26.81;nan
34328;BME280;20588;48.840;10.064;2023-04-22T10:59:40;95841.97;;;26.59;nan
34328;BME280;20588;48.840;10.064;2023-04-22T11:02:07;95842.03;;;26.95;nan
34328;BME280;20588;48.840;10.064;2023-04-22T11:04:34;95846.66;;;27.10;nan
34328;BME280;20588;48.840;10.064;2023-04-22T11:09:52;95849.94;;;27.67;nan
34328;BME280;20588;48.840;10.064;2023-04-22T11:15:15;95842.94;;;26.87;nan
34328;BME280;20588;48.840;10.064;2023-04-22T11:17:43;95834.09;;;25.73;nan
34328;BME280;20588;48.840;10.064;2023-04-22T11:20:10;95829.09;;;25.92;nan
34328;BME280;20588;48.840;10.064;2023-04-22T11:22:41;95836.38;;;26.15;nan
34328;BME280;20588;48.840;10.064;2023-04-22T11:25:07;95831.13;;;26.27;nan
34328;BME280;20588;48.840;10.064;2023-04-22T11:27:38;95832.13;;;26.23;nan
34328;BME280;20588;48.840;10.064;2023-04-22T11:30:18;95827.63;;;26.35;nan
34328;BME280;20588;48.840;10.064;2023-04-22T11:32:50;95827.00;;;26.06;nan
34328;BME280;20588;48.840;10.064;2023-04-22T11:35:33;95823.38;;;26.10;nan
34328;BME280;20588;48.840;10.064;2023-04-22T11:38:01;95824.63;;;27.18;nan
34328;BME280;20588;48.840;10.064;2023-04-22T11:42:56;95824.47;;;25.89;nan
34328;BME280;20588;48.840;10.064;2023-04-22T11:45:23;95824.16;;;25.90;nan
34328;BME280;20588;48.840;10.064;2023-04-22T11:47:51;95814.72;;;26.67;nan
34328;BME280;20588;48.840;10.064;2023-04-22T11:50:22;95821.13;;;26.90;nan
34328;BME280;20588;48.840;10.064;2023-04-22T11:55:28;95814.72;;;25.48;nan
34328;BME280;20588;48.840;10.064;2023-04-22T12:00:29;95816.91;;;25.67;nan
34328;BME280;20588;48.840;10.064;2023-04-22T12:03:12;95820.31;;;26.20;nan
34328;BME280;20588;48.840;10.064;2023-04-22T12:08:07;95815.88;;;25.59;nan
34328;BME280;20588;48.840;10.064;2023-04-22T12:10:38;95822.81;;;25.84;nan
34328;BME280;20588;48.840;10.064;2023-04-22T12:13:04;95813.56;;;25.37;nan
34328;BME280;20588;48.840;10.064;2023-04-22T12:15:38;95810.34;;;25.73;nan
34328;BME280;20588;48.840;10.064;2023-04-22T12:18:04;95816.38;;;25.94;nan
34328;BME280;20588;48.840;10.064;2023-04-22T12:20:35;95805.56;;;26.52;nan
34328;BME280;20588;48.840;10.064;2023-04-22T12:23:02;95811.66;;;26.89;nan
34328;BME280;20588;48.840;10.064;2023-04-22T12:25:29;95812.09;;;26.79;nan
34328;BME280;20588;48.840;10.064;2023-04-22T12:27:55;95816.34;;;26.14;nan
34328;BME280;20588;48.840;10.064;2023-04-22T12:30:22;95807.31;;;25.42;nan
34328;BME280;20588;48.840;10.064;2023-04-22T12:32:49;95802.34;;;25.81;nan
34328;BME280;20588;48.840;10.064;2023-04-22T12:35:15;95800.19;;;25.83;nan
34328;BME280;20588;48.840;10.064;2023-04-22T12:37:42;95804.66;;;25.83;nan
34328;BME280;20588;48.840;10.064;2023-04-22T12:40:09;95802.94;;;25.66;nan
34328;BME280;20588;48.840;10.064;2023-04-22T12:42:36;95798.56;;;25.29;nan
34328;BME280;20588;48.840;10.064;2023-04-22T12:45:02;95802.16;;;25.25;nan
34328;BME280;20588;48.840;10.064;2023-04-22T12:47:28;95803.34;;;25.07;nan
34328;BME280;20588;48.840;10.064;2023-04-22T12:49:55;95802.16;;;24.96;nan
34328;BME280;20588;48.840;10.064;2023-04-22T12:52:21;95797.16;;;25.03;nan
34328;BME280;20588;48.840;10.064;2023-04-22T12:54:47;95799.78;;;25.32;nan
34328;BME280;20588;48.840;10.064;2023-04-22T12:57:13;95811.25;;;25.36;nan
34328;BME280;20588;48.840;10.064;2023-04-22T12:59:39;95803.84;;;24.62;nan
34328;BME280;20588;48.840;10.064;2023-04-22T13:02:05;95794.97;;;24.38;nan
34328;BME280;20588;48.840;10.064;2023-04-22T13:04:31;95797.63;;;24.29;nan
34328;BME280;20588;48.840;10.064;2023-04-22T13:06:57;95797.28;;;24.39;nan
34328;BME280;20588;48.840;10.064;2023-04-22T13:09:24;95806.50;;;24.54;nan
34328;BME280;20588;48.840;10.064;2023-04-22T13:11:51;95803.78;;;24.79;nan
34328;BME280;20588;48.840;10.064;2023-04-22T13:14:17;95798.19;;;25.10;nan
34328;BME280;20588;48.840;10.064;2023-04-22T13:16:44;95792.38;;;25.34;nan
34328;BME280;20588;48.840;10.064;2023-04-22T13:19:10;95794.44;;;24.91;nan
34328;BME280;20588;48.840;10.064;2023-04-22T13:21:36;95799.25;;;24.89;nan
34328;BME280;20588;48.840;10.064;2023-04-22T13:24:02;95785.66;;;25.07;nan
34328;BME280;20588;48.840;10.064;2023-04-22T13:26:29;95780.16;;;25.21;nan
34328;BME280;20588;48.840;10.064;2023-04-22T13:28:55;95788.06;;;25.00;nan
34328;BME280;20588;48.840;10.064;2023-04-22T13:31:21;95777.59;;;25.12;nan
34328;BME280;20588;48.840;10.064;2023-04-22T13:33:47;95777.09;;;24.90;nan
34328;BME280;20588;48.840;10.064;2023-04-22T13:36:13;95778.47;;;24.58;nan
34328;BME280;20588;48.840;10.064;2023-04-22T13:38:39;95775.06;;;24.57;nan
34328;BME280;20588;48.840;10.064;2023-04-22T13:41:05;95772.00;;;24.01;nan